首页
METAR-TAF:

METAR-TAF

机场 :

登海尔德, 荷兰

纬度: 52-55N, 经度: 004-47E, 海拔: 0米

当前天气观测

该预报发布于17分钟前的00:58 UTC
风速8节,风向南转南东,在东转东南之间变化
温度 5°C
湿度 93%
气压 998 hPa
能見度: 7000
多云层高于5400英尺
多云层高于6700英尺
轻雾

METAR: EHKD 140058Z AUTO 15008KT 120V180 7000 BR BKN054 BKN067 05/04 Q0998 WHT

时间: 02:15 (01:15 UTC)

预报

该预报发布于7小时和36分钟前的17:39 UTC
预报有效从13日的 18点(UTC)到 14日的 06点(UTC)
风速7节,风向南转西南
能见度10公里或以上
散云层高于3000英尺
短暂存在
从 13日的 18点(UTC)到 14日的 00点(UTC)
能見度: 4500
少量云层高于800英尺
散云层高于1800英尺, 积雨云.
多云层高于2500英尺
阵雨
几率 30% :
短暂存在
从 13日的 18点(UTC)到 13日的 22点(UTC)
风速16节,风向西,有时为28节阵风
能見度: 3000
散云层高于800英尺
散云层高于1500英尺, 积雨云.
多云层高于2000英尺
雷暴, 雨, 小冰雹或雪球
成为
从 13日的 18点(UTC)到 13日的 20点(UTC)
风速9节,风向南转南东
成为
从 14日的 04点(UTC)到 14日的 06点(UTC)
风速11节,风向东南

TAF: EHKD 131739Z 1318/1406 20007KT 9999 SCT030 TEMPO 1318/1400 4500 SHRA FEW008 SCT018CB BKN025 PROB30 TEMPO 1318/1322 27016G28KT 3000 TSRAGS SCT008 SCT015CB BKN020 BECMG 1318/1320 16009KT BECMG 1404/1406 13011KT

超过4000个机场的气象观测和天气预报(METAR&TAF报告)。

可查询的气象台以黄色和红色小点在地图上表示。

将鼠标移到小点上方,可查看气象台名称。

然后点击查看天气观测和预报。

如需切换地图:点击带黑十字的绿色按钮放大地图;点击带横线的绿色按钮缩小地图;或者点击绿色箭头查看邻近地区的地图。


METAR-TAF: